Time;durP1;ratioP1;P1;durP2;ratioP2;P2;SDS_P1;SDS_P2;PMS_P1;PMS_P2;Temp;Humidity;BMP_temperature;BMP_pressure;BME280_temperature;BME280_humidity;BME280_pressure;Samples;Min_cycle;Max_cycle;Signal;HPM_P1;HPM_P2
2021/04/12 00:04:03;;;;;;;2.17;1.30;;;20.90;29.10;;;;;;8466203;28;20030;-55
2021/04/12 00:08:24;;;;;;;1.13;1.00;;;20.80;29.10;;;;;;8497410;27;20150;-55
2021/04/12 00:12:49;;;;;;;1.63;1.00;;;20.80;29.10;;;;;;8492893;27;20035;-55
2021/04/12 00:16:59;;;;;;;1.73;1.13;;;20.80;29.20;;;;;;8474964;27;20043;-55
2021/04/12 00:21:07;;;;;;;1.42;1.05;;;20.70;29.10;;;;;;8459286;28;20051;-56
2021/04/12 00:25:20;;;;;;;2.95;0.88;;;20.70;29.10;;;;;;8461063;28;20027;-56
2021/04/12 00:29:32;;;;;;;1.70;1.10;;;20.70;29.20;;;;;;8463730;28;20043;-55
2021/04/12 00:33:58;;;;;;;1.05;0.70;;;20.70;29.10;;;;;;8460699;28;20122;-55
2021/04/12 00:38:35;;;;;;;1.00;0.80;;;20.70;29.20;;;;;;8460665;28;20484;-55
2021/04/12 00:43:17;;;;;;;1.15;0.90;;;20.60;29.10;;;;;;8459098;28;20050;-55
2021/04/12 00:48:02;;;;;;;1.45;1.00;;;20.60;29.10;;;;;;8460504;28;20059;-55
2021/04/12 00:52:28;;;;;;;1.00;0.90;;;20.70;29.20;;;;;;8451349;27;20031;-55
2021/04/12 00:56:41;;;;;;;1.17;0.98;;;20.60;29.20;;;;;;8488405;27;20044;-55
2021/04/12 01:00:54;;;;;;;0.82;0.70;;;20.60;29.10;;;;;;8463902;28;20032;-55
2021/04/12 01:04:58;;;;;;;2.30;0.70;;;20.60;29.20;;;;;;8459699;28;20034;-55
2021/04/12 01:09:38;;;;;;;1.00;0.90;;;20.50;29.60;;;;;;8457974;28;20164;-54
2021/04/12 01:13:47;;;;;;;1.38;0.80;;;20.50;29.20;;;;;;8437732;28;20047;-55
2021/04/12 01:18:03;;;;;;;0.47;0.47;;;20.50;29.20;;;;;;8458034;27;20043;-55
2021/04/12 01:22:34;;;;;;;2.00;1.08;;;20.50;29.20;;;;;;8461721;28;20040;-55
2021/04/12 01:27:20;;;;;;;0.98;0.70;;;20.50;29.20;;;;;;8428270;28;20028;-55
2021/04/12 01:32:05;;;;;;;0.90;0.75;;;20.50;29.20;;;;;;8404762;28;20135;-56
2021/04/12 01:36:42;;;;;;;0.80;0.70;;;20.40;29.10;;;;;;8457891;27;20023;-55
2021/04/12 01:41:11;;;;;;;1.08;0.70;;;20.40;29.10;;;;;;8466472;27;20054;-55
2021/04/12 01:45:30;;;;;;;1.08;0.60;;;20.40;29.20;;;;;;8457269;28;20365;-55
2021/04/12 01:50:08;;;;;;;0.80;0.65;;;20.40;29.20;;;;;;8458611;28;20040;-54
2021/04/12 01:54:23;;;;;;;1.00;0.77;;;20.40;29.20;;;;;;8456550;28;20100;-55
2021/04/12 01:59:04;;;;;;;0.88;0.73;;;20.40;29.20;;;;;;8462692;28;20056;-55
2021/04/12 02:03:23;;;;;;;1.30;1.20;;;20.30;29.10;;;;;;8427424;28;20032;-55
2021/04/12 02:07:43;;;;;;;1.33;0.52;;;20.30;29.10;;;;;;8456397;28;20050;-54
2021/04/12 02:12:02;;;;;;;1.52;0.82;;;20.30;29.10;;;;;;8457037;28;20378;-55
2021/04/12 02:16:25;;;;;;;0.70;0.60;;;20.30;29.10;;;;;;8458448;28;20101;-55
2021/04/12 02:20:57;;;;;;;0.60;0.60;;;20.30;29.10;;;;;;8456064;28;20507;-55
2021/04/12 02:25:09;;;;;;;0.60;0.50;;;20.20;29.10;;;;;;8461011;28;20026;-55
2021/04/12 02:29:19;;;;;;;0.73;0.60;;;20.20;29.10;;;;;;8496258;28;20039;-55
2021/04/12 02:33:38;;;;;;;0.88;0.60;;;20.20;29.10;;;;;;8459341;28;20063;-55
2021/04/12 02:38:05;;;;;;;1.50;0.70;;;20.20;29.10;;;;;;8457783;28;20039;-55
2021/04/12 02:42:27;;;;;;;0.55;0.50;;;20.20;29.10;;;;;;8439531;28;20040;-55
2021/04/12 02:46:46;;;;;;;0.68;0.68;;;20.10;29.10;;;;;;8457468;28;20089;-55
2021/04/12 02:50:57;;;;;;;0.93;0.60;;;20.10;29.10;;;;;;8455855;28;20047;-55
2021/04/12 02:55:35;;;;;;;1.10;0.70;;;20.10;29.10;;;;;;8462020;28;20031;-56
2021/04/12 03:00:27;;;;;;;0.65;0.60;;;20.10;29.00;;;;;;8487958;28;20062;-55
2021/04/12 03:04:40;;;;;;;0.88;0.60;;;20.10;29.10;;;;;;8474217;28;20134;-55
2021/04/12 03:08:47;;;;;;;0.90;0.80;;;20.10;29.10;;;;;;8467109;28;20031;-55
2021/04/12 03:12:58;;;;;;;0.70;0.50;;;20.10;29.00;;;;;;8457143;28;20036;-55
2021/04/12 03:17:38;;;;;;;0.68;0.63;;;20.10;29.10;;;;;;8456979;28;20036;-55
2021/04/12 03:22:13;;;;;;;0.68;0.50;;;20.10;29.00;;;;;;8461049;28;20226;-54
2021/04/12 03:26:25;;;;;;;0.50;0.50;;;20.00;29.00;;;;;;8433806;28;20086;-55
2021/04/12 03:30:33;;;;;;;0.40;0.40;;;20.00;29.00;;;;;;8457827;28;20038;-55
2021/04/12 03:34:33;;;;;;;0.50;0.50;;;20.00;29.00;;;;;;8463093;28;20050;-54
2021/04/12 03:39:09;;;;;;;0.50;0.50;;;20.00;29.00;;;;;;8460901;28;20035;-55
2021/04/12 03:43:12;;;;;;;0.80;0.50;;;20.00;29.00;;;;;;8456671;28;20042;-55
2021/04/12 03:47:36;;;;;;;0.40;0.40;;;20.00;29.00;;;;;;8466681;28;20062;-55
2021/04/12 03:52:14;;;;;;;0.40;0.40;;;20.00;29.00;;;;;;8493549;27;20377;-55
2021/04/12 03:56:36;;;;;;;0.50;0.40;;;20.00;29.00;;;;;;8467185;27;20045;-55
2021/04/12 04:00:55;;;;;;;0.52;0.40;;;20.00;29.00;;;;;;8460533;28;20046;-55
2021/04/12 04:05:18;;;;;;;0.60;0.50;;;20.00;29.00;;;;;;8461761;28;20103;-55
2021/04/12 04:09:45;;;;;;;0.93;0.50;;;19.90;28.90;;;;;;8460155;28;20039;-55
2021/04/12 04:14:14;;;;;;;0.40;0.40;;;20.00;29.10;;;;;;8463012;28;20088;-55
2021/04/12 04:18:43;;;;;;;0.50;0.50;;;20.00;29.20;;;;;;8430400;28;20588;-55
2021/04/12 04:22:59;;;;;;;0.50;0.50;;;20.10;29.10;;;;;;8459959;28;20093;-55
2021/04/12 04:27:31;;;;;;;0.55;0.40;;;20.10;29.00;;;;;;8459362;28;20028;-54
2021/04/12 04:32:06;;;;;;;0.40;0.38;;;20.20;29.10;;;;;;8461738;27;20119;-55
2021/04/12 04:36:28;;;;;;;0.35;0.30;;;20.20;29.00;;;;;;8457835;28;20040;-55
2021/04/12 04:40:50;;;;;;;0.85;0.57;;;20.30;29.10;;;;;;8460360;28;20411;-55
2021/04/12 04:45:11;;;;;;;0.32;0.32;;;20.30;29.00;;;;;;8463308;28;20388;-55
2021/04/12 04:49:20;;;;;;;0.63;0.40;;;20.40;29.10;;;;;;8430937;28;20043;-55
2021/04/12 04:53:57;;;;;;;0.88;0.50;;;20.40;29.10;;;;;;8452246;28;20044;-55
2021/04/12 04:58:18;;;;;;;0.30;0.30;;;20.40;29.00;;;;;;8460295;28;20039;-55
2021/04/12 05:02:29;;;;;;;0.53;0.50;;;20.40;29.10;;;;;;8457966;28;20067;-51
2021/04/12 05:07:12;;;;;;;0.30;0.30;;;20.50;29.10;;;;;;8465624;27;20070;-55
2021/04/12 05:11:24;;;;;;;0.40;0.40;;;20.50;29.10;;;;;;8490697;27;20051;-55
2021/04/12 05:15:27;;;;;;;0.57;0.40;;;20.50;29.10;;;;;;8463255;28;20036;-55
2021/04/12 05:19:52;;;;;;;0.30;0.30;;;20.50;29.00;;;;;;8459020;28;20071;-55
2021/04/12 05:24:15;;;;;;;0.40;0.40;;;20.50;29.00;;;;;;8457592;28;20036;-55
2021/04/12 05:28:40;;;;;;;0.57;0.40;;;20.60;29.00;;;;;;8458992;28;20480;-55
2021/04/12 05:33:04;;;;;;;0.82;0.50;;;20.60;29.10;;;;;;8457707;28;20041;-55
2021/04/12 05:37:14;;;;;;;0.60;0.47;;;20.60;29.00;;;;;;8458985;27;20484;-55
2021/04/12 05:41:47;;;;;;;0.52;0.40;;;20.60;29.00;;;;;;8463041;28;20055;-55
2021/04/12 05:46:26;;;;;;;0.50;0.38;;;20.60;29.10;;;;;;8456881;28;20377;-55
2021/04/12 05:51:00;;;;;;;0.65;0.40;;;20.50;29.10;;;;;;8443860;28;20063;-55
2021/04/12 05:55:07;;;;;;;0.55;0.55;;;20.50;29.10;;;;;;8458394;28;20046;-55
2021/04/12 05:59:16;;;;;;;0.40;0.40;;;20.50;29.00;;;;;;8458078;28;20132;-55
2021/04/12 06:03:39;;;;;;;0.50;0.45;;;20.50;29.10;;;;;;8457330;28;20480;-57
2021/04/12 06:08:01;;;;;;;0.40;0.38;;;20.40;29.00;;;;;;8462772;28;20031;-55
2021/04/12 06:12:17;;;;;;;0.30;0.30;;;20.40;29.00;;;;;;8456340;28;20100;-55
2021/04/12 06:16:41;;;;;;;0.73;0.43;;;20.40;29.10;;;;;;8457906;28;20504;-55
2021/04/12 06:21:00;;;;;;;0.30;0.30;;;20.40;29.10;;;;;;8456095;28;20036;-54
2021/04/12 06:25:12;;;;;;;0.30;0.30;;;20.40;29.10;;;;;;8457583;28;20172;-54
2021/04/12 06:29:31;;;;;;;0.63;0.38;;;20.40;29.10;;;;;;8457521;28;20038;-55
2021/04/12 06:33:51;;;;;;;0.50;0.32;;;20.40;29.10;;;;;;8461285;28;20506;-55
2021/04/12 06:38:28;;;;;;;0.30;0.30;;;20.50;29.00;;;;;;8457582;28;20122;-55
2021/04/12 06:43:02;;;;;;;0.30;0.30;;;20.50;29.10;;;;;;8456263;28;20039;-55
2021/04/12 06:47:40;;;;;;;0.57;0.38;;;20.50;29.00;;;;;;8457537;28;20039;-55
2021/04/12 06:52:18;;;;;;;1.05;0.40;;;20.50;29.00;;;;;;8456337;28;20066;-55
2021/04/12 06:56:21;;;;;;;0.25;0.25;;;20.60;29.00;;;;;;8467288;27;20631;-52
2021/04/12 07:00:50;;;;;;;1.05;0.40;;;20.60;29.00;;;;;;8495778;27;20043;-56
2021/04/12 07:05:21;;;;;;;1.85;0.52;;;20.60;29.20;;;;;;8468294;28;20479;-55
2021/04/12 07:09:56;;;;;;;0.68;0.38;;;20.60;29.00;;;;;;8465042;28;20035;-55
2021/04/12 07:14:32;;;;;;;0.40;0.40;;;20.60;29.00;;;;;;8463564;28;20058;-54
2021/04/12 07:18:58;;;;;;;0.80;0.40;;;20.60;29.00;;;;;;8485462;27;20047;-55
2021/04/12 07:23:23;;;;;;;0.95;0.35;;;20.60;29.00;;;;;;8479290;27;20038;-55
2021/04/12 07:27:39;;;;;;;0.47;0.45;;;20.60;29.10;;;;;;8462179;27;20055;-55
2021/04/12 07:31:51;;;;;;;0.52;0.50;;;20.50;29.10;;;;;;8463459;28;20043;-56
2021/04/12 07:36:10;;;;;;;0.88;0.65;;;20.60;29.10;;;;;;8465533;28;20527;-55
2021/04/12 07:40:48;;;;;;;0.80;0.68;;;20.50;29.10;;;;;;8462610;28;20098;-54
2021/04/12 07:45:03;;;;;;;0.80;0.80;;;20.50;29.10;;;;;;8486792;27;20039;-56
2021/04/12 07:49:10;;;;;;;0.95;0.60;;;20.50;29.20;;;;;;8478163;27;20476;-55
2021/04/12 07:53:59;;;;;;;0.95;0.85;;;20.40;29.10;;;;;;8462179;28;20031;-55
2021/04/12 07:58:37;;;;;;;0.80;0.80;;;20.40;29.10;;;;;;8461388;28;20046;-55
2021/04/12 08:02:56;;;;;;;1.10;0.80;;;20.40;29.00;;;;;;8460516;28;20051;-55
2021/04/12 08:07:02;;;;;;;0.80;0.70;;;20.40;29.00;;;;;;8466290;28;20432;-55
2021/04/12 08:11:18;;;;;;;0.80;0.68;;;20.40;29.00;;;;;;8462429;28;20066;-56
2021/04/12 08:15:53;;;;;;;0.80;0.70;;;20.30;28.90;;;;;;8459974;27;20027;-55
2021/04/12 08:20:28;;;;;;;1.10;0.60;;;20.30;29.30;;;;;;8461404;28;20564;-55
2021/04/12 08:25:06;;;;;;;0.80;0.77;;;20.30;28.90;;;;;;8459682;28;20036;-56
2021/04/12 08:29:32;;;;;;;0.85;0.70;;;20.30;28.90;;;;;;8461024;28;20643;-56
2021/04/12 08:34:20;;;;;;;0.82;0.70;;;20.30;28.90;;;;;;8435036;28;20036;-56
2021/04/12 08:38:51;;;;;;;1.25;0.80;;;20.30;29.00;;;;;;8429869;28;20040;-55
2021/04/12 08:43:36;;;;;;;1.23;1.00;;;20.30;29.00;;;;;;8460375;28;20047;-56
2021/04/12 08:48:12;;;;;;;1.15;0.85;;;20.30;29.00;;;;;;8459012;28;20070;-55
2021/04/12 08:52:40;;;;;;;1.25;1.00;;;20.20;29.00;;;;;;8460689;28;20031;-56
2021/04/12 08:57:14;;;;;;;1.02;0.93;;;20.20;28.90;;;;;;8458596;28;20055;-56
2021/04/12 09:01:35;;;;;;;0.90;0.80;;;20.20;28.90;;;;;;8460150;28;20065;-56
2021/04/12 09:06:01;;;;;;;1.20;1.10;;;20.20;29.00;;;;;;8457987;28;20089;-55
2021/04/12 09:10:29;;;;;;;1.15;1.02;;;20.20;29.00;;;;;;8464452;28;20031;-54
2021/04/12 09:14:49;;;;;;;1.25;1.15;;;20.20;29.00;;;;;;8429309;28;20069;-55
2021/04/12 09:19:23;;;;;;;1.40;0.77;;;20.20;29.00;;;;;;8454270;28;20093;-55
2021/04/12 09:23:57;;;;;;;1.30;0.90;;;20.10;29.00;;;;;;8457902;28;20044;-54
2021/04/12 09:28:08;;;;;;;2.58;1.05;;;20.10;29.00;;;;;;8459390;28;20058;-55
2021/04/12 09:32:27;;;;;;;0.85;0.85;;;20.10;29.00;;;;;;8459133;27;20039;-55
2021/04/12 09:36:46;;;;;;;1.20;0.90;;;20.10;29.00;;;;;;8457950;28;20032;-55
2021/04/12 09:41:15;;;;;;;1.38;1.08;;;20.10;29.00;;;;;;8463251;28;20059;-55
2021/04/12 09:46:00;;;;;;;1.08;0.93;;;20.10;29.00;;;;;;8456797;28;20499;-56
2021/04/12 09:50:31;;;;;;;1.20;0.98;;;20.10;29.00;;;;;;8458764;28;20035;-55
2021/04/12 09:55:02;;;;;;;1.00;0.90;;;20.10;29.00;;;;;;8457642;27;20400;-56
2021/04/12 09:59:23;;;;;;;1.50;0.80;;;20.10;29.00;;;;;;8458233;28;20051;-55
2021/04/12 10:03:33;;;;;;;;;;;20.00;29.00;;;;;;8457302;28;20054;-55
2021/04/12 10:08:04;;;;;;;1.35;0.90;;;20.00;29.00;;;;;;8459023;28;19911;-56
2021/04/12 10:12:30;;;;;;;1.45;0.90;;;20.00;29.00;;;;;;8476367;28;20080;-54
2021/04/12 10:16:45;;;;;;;1.35;0.85;;;20.00;29.00;;;;;;8458439;28;20085;-55
2021/04/12 10:21:12;;;;;;;1.00;0.80;;;20.00;29.00;;;;;;8463985;28;20040;-55
2021/04/12 10:25:22;;;;;;;0.88;0.85;;;20.00;29.00;;;;;;8433664;28;20088;-55
2021/04/12 10:29:29;;;;;;;1.30;1.20;;;20.00;29.00;;;;;;8457325;28;20064;-55
2021/04/12 10:33:57;;;;;;;0.77;0.75;;;20.00;29.00;;;;;;8461999;27;20046;-55
2021/04/12 10:38:18;;;;;;;1.40;0.90;;;20.00;29.00;;;;;;8464677;28;20030;-55
2021/04/12 10:42:30;;;;;;;1.42;0.80;;;19.90;29.00;;;;;;8467191;28;20051;-55
2021/04/12 10:47:08;;;;;;;0.85;0.85;;;20.00;29.00;;;;;;8466274;27;20440;-55
2021/04/12 10:51:20;;;;;;;0.80;0.80;;;19.90;29.00;;;;;;8462070;28;20024;-55
2021/04/12 10:55:38;;;;;;;0.98;0.80;;;19.90;29.00;;;;;;8463841;28;20380;-54
2021/04/12 11:00:02;;;;;;;0.90;0.65;;;19.90;29.00;;;;;;8463745;27;20044;-54
2021/04/12 11:04:30;;;;;;;1.27;1.00;;;19.90;29.00;;;;;;8462327;28;20388;-55
2021/04/12 11:08:57;;;;;;;1.08;0.98;;;19.90;29.00;;;;;;8465934;28;20039;-55
2021/04/12 11:13:41;;;;;;;0.88;0.70;;;19.90;29.00;;;;;;8432851;28;20058;-54
2021/04/12 11:17:51;;;;;;;1.73;0.80;;;19.90;29.00;;;;;;8463897;28;20066;-54
2021/04/12 11:22:30;;;;;;;1.15;0.80;;;19.90;29.00;;;;;;8452336;28;20052;-54
2021/04/12 11:27:01;;;;;;;1.20;0.73;;;19.90;29.00;;;;;;8463126;27;20047;-55
2021/04/12 11:31:21;;;;;;;0.93;0.80;;;19.90;29.10;;;;;;8461516;28;20385;-54
2021/04/12 11:35:59;;;;;;;1.38;0.85;;;19.90;29.10;;;;;;8430984;28;20032;-55
2021/04/12 11:40:19;;;;;;;0.70;0.70;;;19.90;29.10;;;;;;8461224;28;20035;-55
2021/04/12 11:44:25;;;;;;;0.80;0.80;;;19.90;29.10;;;;;;8466277;27;20032;-54
2021/04/12 11:48:46;;;;;;;1.00;0.80;;;19.90;29.00;;;;;;8460245;28;20032;-54
2021/04/12 11:52:58;;;;;;;0.77;0.77;;;19.90;29.10;;;;;;8462173;28;20035;-54
2021/04/12 11:57:16;;;;;;;0.93;0.90;;;19.90;29.00;;;;;;8460805;27;20496;-55
2021/04/12 12:01:38;;;;;;;1.08;0.95;;;19.90;29.10;;;;;;8461792;28;20044;-55
2021/04/12 12:06:09;;;;;;;1.05;0.80;;;19.90;29.00;;;;;;8466226;28;20032;-54
2021/04/12 12:10:37;;;;;;;0.80;0.80;;;19.90;29.00;;;;;;8431031;28;20063;-55
2021/04/12 12:14:53;;;;;;;0.90;0.70;;;19.90;29.00;;;;;;8459723;28;20043;-54
2021/04/12 12:19:24;;;;;;;0.93;0.82;;;19.90;29.00;;;;;;8460083;28;20560;-54
2021/04/12 12:23:43;;;;;;;1.27;0.90;;;19.90;29.10;;;;;;8461411;27;20399;-53
2021/04/12 12:28:15;;;;;;;0.73;0.60;;;20.00;29.10;;;;;;8459291;27;20479;-53
2021/04/12 12:32:15;;;;;;;1.02;0.93;;;19.90;29.00;;;;;;8461158;28;20094;-54
2021/04/12 12:36:42;;;;;;;1.60;0.90;;;20.00;29.00;;;;;;8463619;28;20024;-54
2021/04/12 12:40:55;;;;;;;1.55;1.02;;;20.00;29.00;;;;;;8449558;28;20189;-53
2021/04/12 12:45:06;;;;;;;0.70;0.70;;;20.00;29.00;;;;;;8448462;27;20036;-54
2021/04/12 12:49:15;;;;;;;1.05;0.80;;;20.00;29.00;;;;;;8460256;28;20091;-53
2021/04/12 12:53:22;;;;;;;0.77;0.77;;;20.00;29.00;;;;;;8453204;28;20539;-54
2021/04/12 12:57:37;;;;;;;0.80;0.80;;;20.00;28.90;;;;;;8453228;28;20028;-54
2021/04/12 13:01:40;;;;;;;1.08;0.98;;;20.00;29.00;;;;;;8459875;28;20047;-52
2021/04/12 13:05:43;;;;;;;1.00;0.90;;;20.00;29.00;;;;;;8476749;27;20027;-51
2021/04/12 13:10:19;;;;;;;0.70;0.70;;;20.00;29.00;;;;;;8490549;27;20395;-53
2021/04/12 13:14:42;;;;;;;1.13;0.75;;;20.00;29.00;;;;;;8439582;28;20031;-50
2021/04/12 13:19:00;;;;;;;1.02;0.82;;;20.00;29.00;;;;;;8394664;27;20422;-52
2021/04/12 13:23:13;;;;;;;1.35;0.90;;;19.90;29.00;;;;;;8411300;27;20396;-54
2021/04/12 13:27:19;;;;;;;1.13;1.02;;;19.90;29.00;;;;;;8414193;28;20123;-53
2021/04/12 13:31:33;;;;;;;0.98;0.90;;;19.90;29.00;;;;;;8418066;28;20044;-53
2021/04/12 13:35:37;;;;;;;0.80;0.80;;;19.90;29.00;;;;;;8419717;28;20063;-54
2021/04/12 13:39:44;;;;;;;0.90;0.90;;;19.90;29.00;;;;;;8417610;28;20123;-53
2021/04/12 13:43:49;;;;;;;2.35;0.77;;;19.90;29.00;;;;;;8424360;28;20089;-52
2021/04/12 13:47:52;;;;;;;1.30;0.90;;;19.90;29.00;;;;;;8400875;27;20037;-53
2021/04/12 13:52:01;;;;;;;1.30;0.90;;;19.90;29.00;;;;;;8403999;28;20370;-53
2021/04/12 13:56:09;;;;;;;0.88;0.85;;;19.90;29.00;;;;;;8418225;28;20036;-54
2021/04/12 14:00:18;;;;;;;1.02;0.90;;;19.90;29.00;;;;;;8418336;28;20392;-54
2021/04/12 14:04:25;;;;;;;1.08;0.85;;;19.90;29.40;;;;;;8390309;28;20037;-53
2021/04/12 14:08:28;;;;;;;1.17;1.00;;;19.90;29.00;;;;;;8405362;28;20476;-50
2021/04/12 14:12:45;;;;;;;1.17;1.08;;;19.90;29.00;;;;;;8398228;27;20033;-51
2021/04/12 14:16:47;;;;;;;1.20;0.90;;;19.90;29.00;;;;;;8393528;28;20044;-51
2021/04/12 14:20:48;;;;;;;0.90;0.80;;;19.90;29.00;;;;;;8412361;28;20477;-52
2021/04/12 14:24:57;;;;;;;0.73;0.73;;;19.90;29.00;;;;;;8382699;28;20428;-53
2021/04/12 14:29:04;;;;;;;1.30;0.90;;;19.90;29.00;;;;;;8387966;28;20485;-53
2021/04/12 14:33:06;;;;;;;1.35;0.80;;;19.90;29.00;;;;;;8393754;28;20117;-53
2021/04/12 14:37:33;;;;;;;1.35;1.02;;;19.80;29.00;;;;;;8393180;28;20056;-49
2021/04/12 14:41:39;;;;;;;1.40;0.80;;;19.80;29.00;;;;;;8376743;28;20492;-54
2021/04/12 14:45:44;;;;;;;1.27;0.80;;;19.80;29.00;;;;;;8392821;28;20127;-54
2021/04/12 14:50:06;;;;;;;2.22;1.40;;;19.80;29.00;;;;;;8395065;28;20065;-53
2021/04/12 14:54:27;;;;;;;0.98;0.90;;;19.80;29.00;;;;;;8390762;28;20083;-54
2021/04/12 14:58:33;;;;;;;0.95;0.70;;;19.80;29.00;;;;;;8371087;28;20500;-54
2021/04/12 15:02:37;;;;;;;1.50;1.08;;;19.80;29.00;;;;;;8396821;28;20037;-53
2021/04/12 15:06:44;;;;;;;2.78;0.95;;;19.80;29.00;;;;;;8396402;28;20473;-54
2021/04/12 15:10:55;;;;;;;1.20;0.80;;;19.80;29.10;;;;;;8393862;28;20120;-54
2021/04/12 15:15:09;;;;;;;1.10;0.70;;;19.80;29.20;;;;;;8370491;28;20035;-51
2021/04/12 15:19:31;;;;;;;1.00;0.70;;;19.80;29.10;;;;;;8365737;28;20074;-50
2021/04/12 15:23:38;;;;;;;1.20;0.98;;;19.90;29.10;;;;;;8361423;28;20033;-51
2021/04/12 15:27:39;;;;;;;0.65;0.65;;;20.00;29.00;;;;;;8396815;28;20062;-50
2021/04/12 15:31:40;;;;;;;1.13;0.80;;;20.00;29.00;;;;;;8388322;28;20043;-50
2021/04/12 15:35:47;;;;;;;1.73;1.20;;;20.10;28.90;;;;;;8392633;28;20068;-51
2021/04/12 15:39:59;;;;;;;1.98;1.00;;;20.10;28.90;;;;;;8389912;28;20033;-49
2021/04/12 15:44:27;;;;;;;0.88;0.70;;;20.10;28.90;;;;;;8396999;28;20374;-55
2021/04/12 15:48:34;;;;;;;0.70;0.60;;;20.20;28.90;;;;;;8362178;28;20040;-55
2021/04/12 15:52:47;;;;;;;1.05;0.82;;;20.20;28.90;;;;;;8385482;28;20040;-55
2021/04/12 15:56:58;;;;;;;1.27;0.80;;;20.20;28.90;;;;;;8391299;28;20044;-55
2021/04/12 16:01:14;;;;;;;0.97;0.87;;;20.30;28.90;;;;;;8392885;28;20099;-55
2021/04/12 16:05:28;;;;;;;0.73;0.73;;;20.30;28.90;;;;;;8391691;28;20156;-55
2021/04/12 16:09:31;;;;;;;1.63;1.00;;;20.30;28.90;;;;;;8395524;28;20082;-54
2021/04/12 16:13:43;;;;;;;0.82;0.82;;;20.30;28.90;;;;;;8392284;28;20488;-55
2021/04/12 16:17:45;;;;;;;1.13;0.90;;;20.30;28.80;;;;;;8390473;28;20048;-49
2021/04/12 16:21:57;;;;;;;1.05;0.80;;;20.40;28.80;;;;;;8392305;28;20032;-55
2021/04/12 16:26:06;;;;;;;0.77;0.70;;;20.30;28.80;;;;;;8390302;28;20025;-55
2021/04/12 16:30:25;;;;;;;0.98;0.80;;;20.40;28.90;;;;;;8361593;28;20037;-55
2021/04/12 16:34:30;;;;;;;0.85;0.80;;;20.40;28.80;;;;;;8386812;28;20044;-55
2021/04/12 16:38:38;;;;;;;0.73;0.73;;;20.40;28.80;;;;;;8391351;28;20058;-56
2021/04/12 16:42:40;;;;;;;1.10;0.85;;;20.40;28.80;;;;;;8389592;28;20048;-54
2021/04/12 16:46:55;;;;;;;1.30;1.10;;;20.40;28.70;;;;;;8391782;28;20480;-55
2021/04/12 16:51:10;;;;;;;0.70;0.70;;;20.40;28.80;;;;;;8393720;28;20508;-55
2021/04/12 16:55:35;;;;;;;0.88;0.75;;;20.40;28.80;;;;;;8390756;28;20029;-56
2021/04/12 16:59:42;;;;;;;1.63;0.80;;;20.50;28.80;;;;;;8390390;28;20044;-55
2021/04/12 17:03:55;;;;;;;2.38;1.15;;;20.50;28.70;;;;;;8388943;28;20040;-55
2021/04/12 17:07:58;;;;;;;1.00;0.80;;;20.50;28.70;;;;;;8386699;28;20393;-55
2021/04/12 17:12:32;;;;;;;0.90;0.80;;;20.50;28.80;;;;;;8360534;28;20397;-55
2021/04/12 17:16:54;;;;;;;1.65;1.00;;;20.50;28.70;;;;;;8392016;28;20386;-54
2021/04/12 17:21:30;;;;;;;2.45;0.90;;;20.50;28.70;;;;;;8389189;28;20040;-55
2021/04/12 17:25:43;;;;;;;1.40;0.80;;;20.50;28.70;;;;;;8390371;28;20040;-55
2021/04/12 17:30:02;;;;;;;0.98;0.88;;;20.50;28.70;;;;;;8389055;28;20041;-50
2021/04/12 17:34:18;;;;;;;1.02;0.88;;;20.50;28.70;;;;;;8390511;28;20033;-55
2021/04/12 17:38:25;;;;;;;1.08;0.80;;;20.50;28.70;;;;;;8395195;28;20127;-55
2021/04/12 17:42:31;;;;;;;1.25;0.90;;;20.60;28.80;;;;;;8388483;28;20041;-51
2021/04/12 17:46:42;;;;;;;1.50;0.70;;;20.60;28.70;;;;;;8385579;28;20040;-56
2021/04/12 17:50:43;;;;;;;0.90;0.80;;;20.60;28.70;;;;;;8363706;28;20128;-50
2021/04/12 17:54:47;;;;;;;;;;;20.60;28.70;;;;;;8371664;28;20028;-55
2021/04/12 17:59:07;;;;;;;0.88;0.85;;;20.60;28.80;;;;;;8394508;28;20303;-55
2021/04/12 18:03:53;;;;;;;0.85;0.80;;;20.60;28.80;;;;;;8390516;28;20040;-55
2021/04/12 18:08:02;;;;;;;1.10;0.73;;;20.60;28.80;;;;;;8343413;28;20127;-54
2021/04/12 18:12:14;;;;;;;0.70;0.70;;;20.60;28.80;;;;;;8359122;28;21430;-54
2021/04/12 18:16:22;;;;;;;1.15;0.98;;;20.60;28.80;;;;;;8395953;28;20044;-54
2021/04/12 18:20:44;;;;;;;0.70;0.68;;;20.60;28.80;;;;;;8395860;28;20375;-54
2021/04/12 18:25:03;;;;;;;0.90;0.80;;;20.60;28.80;;;;;;8375096;28;20033;-55
2021/04/12 18:29:13;;;;;;;1.25;0.85;;;20.60;28.80;;;;;;8391782;28;20105;-55
2021/04/12 18:33:26;;;;;;;1.95;0.80;;;20.60;28.80;;;;;;8394352;28;20041;-55
2021/04/12 18:37:39;;;;;;;1.10;0.95;;;20.60;28.80;;;;;;8382121;28;20049;-55
2021/04/12 18:41:45;;;;;;;0.77;0.77;;;20.60;28.80;;;;;;8368437;28;20031;-55
2021/04/12 18:45:50;;;;;;;1.10;1.00;;;20.60;28.80;;;;;;8398220;28;20031;-55
2021/04/12 18:49:54;;;;;;;1.55;0.90;;;20.60;28.80;;;;;;8392126;28;20032;-54
2021/04/12 18:54:09;;;;;;;1.20;0.80;;;20.60;28.80;;;;;;8392919;28;20028;-55
2021/04/12 18:58:28;;;;;;;1.08;0.90;;;20.60;28.80;;;;;;8389088;28;20040;-55
2021/04/12 19:02:59;;;;;;;2.67;0.88;;;20.60;28.80;;;;;;8389545;28;20478;-54
2021/04/12 19:07:22;;;;;;;1.52;1.08;;;20.60;28.80;;;;;;8362620;28;20033;-55
2021/04/12 19:11:41;;;;;;;1.27;0.80;;;20.60;28.80;;;;;;8367734;28;20041;-54
2021/04/12 19:16:12;;;;;;;1.55;0.90;;;20.60;28.80;;;;;;8392558;28;20397;-55
2021/04/12 19:20:20;;;;;;;1.57;0.90;;;20.60;28.80;;;;;;8372083;28;20444;-54
2021/04/12 19:24:23;;;;;;;1.00;0.90;;;20.60;28.80;;;;;;8374025;28;20036;-55
2021/04/12 19:28:45;;;;;;;1.90;1.20;;;20.60;28.80;;;;;;8389565;28;20041;-54
2021/04/12 19:33:01;;;;;;;1.52;1.10;;;20.60;28.80;;;;;;8363715;28;20112;-53
2021/04/12 19:37:17;;;;;;;1.63;1.27;;;20.60;28.80;;;;;;8396895;28;20037;-56
2021/04/12 19:41:41;;;;;;;1.20;1.10;;;20.60;28.80;;;;;;8393079;28;20071;-54
2021/04/12 19:45:55;;;;;;;1.67;1.02;;;20.60;28.80;;;;;;8391465;28;20063;-54
2021/04/12 19:50:02;;;;;;;1.92;0.98;;;20.60;28.70;;;;;;8393274;28;20043;-55
2021/04/12 19:54:28;;;;;;;2.88;1.42;;;20.60;28.80;;;;;;8391409;28;20392;-55
2021/04/12 19:58:37;;;;;;;2.55;1.20;;;20.60;28.80;;;;;;8395870;28;20045;-55
2021/04/12 20:02:48;;;;;;;1.10;1.00;;;20.60;28.80;;;;;;8392757;28;20048;-53
2021/04/12 20:07:05;;;;;;;1.05;0.85;;;20.60;28.80;;;;;;8391593;28;20036;-55
2021/04/12 20:11:05;;;;;;;2.08;1.10;;;20.60;28.70;;;;;;8392905;28;20047;-53
2021/04/12 20:15:22;;;;;;;1.10;1.00;;;20.60;28.70;;;;;;8386053;28;20064;-54
2021/04/12 20:19:33;;;;;;;1.05;0.95;;;20.60;28.70;;;;;;8363737;28;20103;-55
2021/04/12 20:24:10;;;;;;;1.20;1.00;;;20.60;28.60;;;;;;8360067;28;20041;-55
2021/04/12 20:28:35;;;;;;;1.58;1.42;;;20.60;28.60;;;;;;8362565;28;20115;-55
2021/04/12 20:32:40;;;;;;;1.17;1.00;;;20.60;28.60;;;;;;8391950;28;20037;-55
2021/04/12 20:36:58;;;;;;;1.60;1.00;;;20.60;28.60;;;;;;8390062;28;20493;-55
2021/04/12 20:41:27;;;;;;;2.40;1.00;;;20.60;28.60;;;;;;8391845;28;20044;-55
2021/04/12 20:46:15;;;;;;;1.30;1.20;;;20.60;28.60;;;;;;8348502;28;20584;-55
2021/04/12 20:50:39;;;;;;;1.38;1.27;;;20.50;28.60;;;;;;8338474;28;20083;-55
2021/04/12 20:54:46;;;;;;;1.10;1.00;;;20.50;28.60;;;;;;8387595;28;20037;-57
2021/04/12 20:58:53;;;;;;;1.15;1.05;;;20.50;28.60;;;;;;8391178;28;20052;-54
2021/04/12 21:03:01;;;;;;;1.40;1.10;;;20.50;28.60;;;;;;8389914;28;20091;-55
2021/04/12 21:07:06;;;;;;;1.73;1.10;;;20.40;28.60;;;;;;8380794;28;20032;-55
2021/04/12 21:11:21;;;;;;;1.83;1.20;;;20.40;28.60;;;;;;8382579;28;20511;-53
2021/04/12 21:15:40;;;;;;;0.85;0.80;;;20.30;28.60;;;;;;8360363;28;20149;-53
2021/04/12 21:20:12;;;;;;;1.10;0.93;;;20.40;28.60;;;;;;8380333;28;20396;-56
2021/04/12 21:24:23;;;;;;;2.47;1.70;;;20.30;29.00;;;;;;8377112;28;20420;-53
2021/04/12 21:28:44;;;;;;;1.53;1.00;;;20.30;28.60;;;;;;8390968;28;20110;-53
2021/04/12 21:32:53;;;;;;;1.50;1.08;;;20.20;28.60;;;;;;8389229;28;20361;-51
2021/04/12 21:36:55;;;;;;;1.25;1.10;;;20.20;28.60;;;;;;8395673;28;20132;-54
2021/04/12 21:41:16;;;;;;;1.83;1.00;;;20.20;28.70;;;;;;8372574;28;20482;-54
2021/04/12 21:45:27;;;;;;;0.73;0.73;;;20.10;28.60;;;;;;8381773;27;20028;-53
2021/04/12 21:49:28;;;;;;;1.13;1.00;;;20.10;28.70;;;;;;8397213;28;20044;-56
2021/04/12 21:53:54;;;;;;;0.93;0.90;;;20.00;29.10;;;;;;8398095;28;20037;-54
2021/04/12 21:58:22;;;;;;;3.08;1.20;;;20.00;28.70;;;;;;8333788;28;20073;-53
2021/04/12 22:02:43;;;;;;;1.33;1.00;;;19.90;28.80;;;;;;8382992;28;20037;-54
2021/04/12 22:06:46;;;;;;;1.13;1.02;;;19.90;28.80;;;;;;8395058;28;20048;-53
2021/04/12 22:11:06;;;;;;;1.63;1.10;;;19.80;28.70;;;;;;8396104;28;20052;-54
2021/04/12 22:15:21;;;;;;;1.05;0.95;;;19.80;28.80;;;;;;8394801;28;20458;-54
2021/04/12 22:19:44;;;;;;;1.52;0.90;;;19.80;28.80;;;;;;8387351;28;20029;-54
2021/04/12 22:24:08;;;;;;;1.10;1.00;;;19.80;28.70;;;;;;8333095;28;20069;-50
2021/04/12 22:28:35;;;;;;;1.42;1.20;;;19.80;28.70;;;;;;8370243;28;20040;-55
2021/04/12 22:33:20;;;;;;;1.15;0.95;;;19.70;28.80;;;;;;8373551;28;20478;-54